Time;durP1;ratioP1;P1;durP2;ratioP2;P2;SDS_P1;SDS_P2;PMS_P1;PMS_P2;Temp;Humidity;BMP_temperature;BMP_pressure;BME280_temperature;BME280_humidity;BME280_pressure;Samples;Min_cycle;Max_cycle;Signal;HPM_P1;HPM_P2
2021/04/27 00:00:11;;;;;;;5.43;1.77;;;;;;;-0.44;57.21;100779.50;5032620;28;20029;-71
2021/04/27 00:02:37;;;;;;;3.37;1.20;;;;;;;-0.40;56.47;100775.31;5032552;28;20084;-72
2021/04/27 00:05:04;;;;;;;2.40;1.00;;;;;;;-0.42;56.15;100776.97;5032666;28;20076;-72
2021/04/27 00:07:30;;;;;;;5.60;1.43;;;;;;;-0.49;56.27;100774.13;5029095;28;20034;-70
2021/04/27 00:09:56;;;;;;;4.57;1.37;;;;;;;-0.52;56.81;100780.91;5032449;28;20041;-71
2021/04/27 00:12:21;;;;;;;4.80;1.23;;;;;;;-0.61;57.24;100780.47;5032183;28;20064;-71
2021/04/27 00:14:46;;;;;;;4.13;1.50;;;;;;;-0.62;58.07;100778.72;5028768;28;20140;-71
2021/04/27 00:17:12;;;;;;;4.17;1.33;;;;;;;-0.62;57.30;100779.59;5032283;28;20037;-71
2021/04/27 00:19:37;;;;;;;3.73;1.23;;;;;;;-0.58;57.15;100773.72;5032441;28;20116;-71
2021/04/27 00:22:02;;;;;;;4.33;1.13;;;;;;;-0.56;57.10;100777.25;5031957;28;20056;-71
2021/04/27 00:24:30;;;;;;;4.73;2.17;;;;;;;-0.58;57.65;100773.72;5032136;28;20041;-71
2021/04/27 00:26:57;;;;;;;6.13;1.37;;;;;;;-0.59;58.13;100773.66;5032222;28;20524;-71
2021/04/27 00:29:22;;;;;;;4.90;1.20;;;;;;;-0.68;57.85;100763.81;5031779;28;20434;-71
2021/04/27 00:31:47;;;;;;;5.90;1.63;;;;;;;-0.79;58.56;100768.50;5031656;28;20044;-71
2021/04/27 00:34:13;;;;;;;4.20;1.53;;;;;;;-0.85;58.56;100760.47;5032008;28;20029;-72
2021/04/27 00:36:38;;;;;;;5.03;1.43;;;;;;;-0.85;58.28;100760.47;5031996;28;20069;-71
2021/04/27 00:39:04;;;;;;;4.50;1.17;;;;;;;-0.84;58.40;100761.34;5031829;28;20041;-72
2021/04/27 00:41:29;;;;;;;2.87;1.50;;;;;;;-0.86;58.67;100760.38;5031593;28;20033;-71
2021/04/27 00:43:54;;;;;;;5.33;1.50;;;;;;;-0.86;58.65;100756.13;5031816;28;20408;-71
2021/04/27 00:46:20;;;;;;;3.53;1.40;;;;;;;-0.86;59.14;100752.63;5032000;28;20412;-71
2021/04/27 00:48:45;;;;;;;6.67;1.90;;;;;;;-0.88;59.04;100752.56;5031833;28;20409;-71
2021/04/27 00:51:11;;;;;;;2.90;1.20;;;;;;;-0.85;59.71;100749.22;5031574;28;20084;-71
2021/04/27 00:53:36;;;;;;;5.20;1.70;;;;;;;-0.84;59.71;100745.78;5031364;28;20041;-70
2021/04/27 00:56:02;;;;;;;5.23;1.80;;;;;;;-0.84;58.98;100743.22;5031653;28;20398;-71
2021/04/27 00:58:27;;;;;;;4.07;1.60;;;;;;;-0.89;58.77;100732.66;5030271;28;20564;-71
2021/04/27 01:00:54;;;;;;;5.23;2.17;;;;;;;-0.91;59.65;100740.34;5031804;28;20108;-71
2021/04/27 01:03:20;;;;;;;4.53;1.37;;;;;;;-0.90;58.87;100738.66;5031122;28;20029;-71
2021/04/27 01:05:46;;;;;;;6.90;2.40;;;;;;;-0.91;60.03;100740.34;5028076;28;20033;-71
2021/04/27 01:08:30;;;;;;;3.97;1.87;;;;;;;-0.90;59.37;100733.47;5032425;28;20030;-71
2021/04/27 01:11:28;;;;;;;3.60;1.50;;;;;;;-0.93;59.49;100730.75;5026478;28;20037;-71
2021/04/27 01:14:32;;;;;;;5.23;1.70;;;;;;;-0.95;59.86;100727.19;5029186;28;20681;-71
2021/04/27 01:17:05;;;;;;;5.03;1.70;;;;;;;-0.96;59.25;100728.91;5025771;28;20092;-71
2021/04/27 01:19:43;;;;;;;5.80;1.77;;;;;;;-0.97;59.53;100729.75;5025198;28;20041;-71
2021/04/27 01:22:11;;;;;;;3.97;2.00;;;;;;;-0.98;59.41;100727.94;5030960;28;20025;-71
2021/04/27 01:24:45;;;;;;;6.50;1.70;;;;;;;-1.02;59.52;100736.44;5031181;28;20124;-71
2021/04/27 01:27:11;;;;;;;4.37;1.77;;;;;;;-1.05;60.24;100737.97;5031205;28;20037;-72
2021/04/27 01:29:37;;;;;;;4.43;1.93;;;;;;;-1.10;59.76;100732.63;5031090;28;20505;-71
2021/04/27 01:32:04;;;;;;;4.40;1.47;;;;;;;-1.15;60.49;100731.53;5030717;28;20032;-71
2021/04/27 01:34:37;;;;;;;6.77;2.30;;;;;;;-1.18;60.83;100728.78;5031467;28;20037;-71
2021/04/27 01:37:09;;;;;;;3.23;1.23;;;;;;;-1.25;61.06;100727.63;5026937;28;20033;-71
2021/04/27 01:39:35;;;;;;;6.07;2.03;;;;;;;-1.38;60.81;100728.78;5029651;28;20504;-71
2021/04/27 01:42:05;;;;;;;6.63;2.20;;;;;;;-1.47;60.66;100728.34;5030890;28;20104;-71
2021/04/27 01:44:32;;;;;;;4.10;1.40;;;;;;;-1.54;61.31;100723.75;5030985;28;20489;-71
2021/04/27 01:46:58;;;;;;;4.17;1.90;;;;;;;-1.59;61.31;100725.22;5031292;28;20033;-71
2021/04/27 01:49:24;;;;;;;4.53;1.70;;;;;;;-1.63;62.20;100725.91;5031268;28;20083;-71
2021/04/27 01:52:28;;;;;;;6.00;1.53;;;;;;;-1.61;61.57;100727.75;5026851;28;20041;-71
2021/04/27 01:54:57;;;;;;;5.47;1.90;;;;;;;-1.55;61.28;100727.13;5030874;28;20558;-71
2021/04/27 01:57:23;;;;;;;6.37;2.50;;;;;;;-1.50;61.24;100730.81;5030850;28;20033;-71
2021/04/27 01:59:48;;;;;;;4.83;2.00;;;;;;;-1.54;62.53;100728.91;5029626;28;20187;-71
2021/04/27 02:02:25;;;;;;;6.77;1.80;;;;;;;-1.58;62.72;100732.16;5029285;28;20455;-70
2021/04/27 02:05:14;;;;;;;6.50;2.23;;;;;;;-1.61;62.76;100722.56;5030728;28;20404;-71
2021/04/27 02:07:55;;;;;;;4.37;1.90;;;;;;;-1.59;62.86;100733.00;5030787;28;20021;-71
2021/04/27 02:10:21;;;;;;;3.60;1.60;;;;;;;-1.59;63.20;100725.22;5029457;28;20401;-71
2021/04/27 02:12:51;;;;;;;7.23;2.23;;;;;;;-1.57;63.65;100737.44;5029155;28;20033;-71
2021/04/27 02:15:18;;;;;;;6.13;2.20;;;;;;;-1.60;64.09;100732.13;5030647;28;20034;-72
2021/04/27 02:17:51;;;;;;;4.40;1.80;;;;;;;-1.63;64.21;100725.91;5030637;28;20558;-71
2021/04/27 02:20:17;;;;;;;;;;;;;;;-1.70;65.60;100729.91;5029879;28;20052;-72
2021/04/27 02:23:05;;;;;;;4.67;1.80;;;;;;;-1.72;64.35;100728.06;5026792;28;20289;-71
2021/04/27 02:25:49;;;;;;;5.60;1.77;;;;;;;-1.71;64.38;100724.66;5025653;28;20040;-71
2021/04/27 02:28:18;;;;;;;5.63;2.10;;;;;;;-1.70;65.07;100716.06;5029333;28;20462;-71
2021/04/27 02:30:44;;;;;;;6.53;2.00;;;;;;;-1.72;65.64;100713.44;5034012;28;20069;-71
2021/04/27 02:33:09;;;;;;;5.77;2.27;;;;;;;-1.75;65.23;100710.72;5033898;28;20457;-71
2021/04/27 02:35:35;;;;;;;5.63;2.17;;;;;;;-1.81;65.25;100713.00;5033017;28;20064;-71
2021/04/27 02:38:10;;;;;;;5.63;2.10;;;;;;;-1.80;65.64;100715.66;5029263;28;20088;-71
2021/04/27 02:40:38;;;;;;;4.87;1.87;;;;;;;-1.79;65.92;100709.66;5034156;28;20033;-71
2021/04/27 02:43:04;;;;;;;7.00;3.27;;;;;;;-1.73;64.51;100710.75;5032314;28;20405;-71
2021/04/27 02:45:40;;;;;;;5.70;3.00;;;;;;;-1.69;64.57;100707.50;5034133;28;20051;-71
2021/04/27 02:48:28;;;;;;;5.07;2.40;;;;;;;-1.65;64.72;100709.41;5032659;28;20046;-71
2021/04/27 02:51:08;;;;;;;6.17;2.37;;;;;;;-1.64;64.56;100706.91;5032267;28;20033;-72
2021/04/27 02:53:48;;;;;;;8.07;2.30;;;;;;;-1.66;64.96;100702.47;5031493;28;20064;-71
2021/04/27 02:56:14;;;;;;;9.90;5.37;;;;;;;-1.73;64.44;100705.59;5032505;28;20029;-71
2021/04/27 02:58:44;;;;;;;6.43;2.77;;;;;;;-1.78;64.81;100707.97;5032471;28;20045;-71
2021/04/27 03:01:10;;;;;;;6.17;2.23;;;;;;;-1.80;64.67;100709.59;5032332;28;20029;-71
2021/04/27 03:03:36;;;;;;;7.43;1.90;;;;;;;-1.89;65.12;100711.75;5032192;28;20033;-71
2021/04/27 03:06:02;;;;;;;4.30;1.90;;;;;;;-1.94;65.27;100710.66;5033701;28;20057;-71
2021/04/27 03:08:29;;;;;;;5.60;2.43;;;;;;;-1.98;64.94;100713.09;5032354;28;20033;-71
2021/04/27 03:10:54;;;;;;;7.13;3.73;;;;;;;-1.97;65.37;100708.81;5032183;28;20171;-71
2021/04/27 03:13:21;;;;;;;8.80;4.47;;;;;;;-1.93;65.37;100713.31;5031939;28;20041;-72
2021/04/27 03:15:50;;;;;;;6.43;3.10;;;;;;;-1.95;65.62;100714.94;5032261;28;20029;-71
2021/04/27 03:18:16;;;;;;;6.87;3.27;;;;;;;-1.99;65.52;100713.03;5032129;28;20047;-70
2021/04/27 03:20:43;;;;;;;10.60;3.60;;;;;;;-2.01;65.33;100714.66;5032083;28;20076;-71
2021/04/27 03:23:22;;;;;;;11.43;3.03;;;;;;;-2.03;66.09;100706.81;5028972;28;20554;-72
2021/04/27 03:25:48;;;;;;;7.43;3.30;;;;;;;-2.06;65.24;100710.97;5033338;28;20087;-72
2021/04/27 03:28:15;;;;;;;5.37;2.40;;;;;;;-2.10;65.64;100709.03;5031831;28;20026;-71
2021/04/27 03:30:56;;;;;;;8.23;2.40;;;;;;;-2.10;64.94;100703.88;5031903;28;20066;-71
2021/04/27 03:33:22;;;;;;;7.20;2.73;;;;;;;-2.12;65.43;100706.41;5031423;28;20029;-71
2021/04/27 03:35:51;;;;;;;5.70;2.10;;;;;;;-2.13;65.28;100703.72;5031563;28;20036;-71
2021/04/27 03:38:17;;;;;;;5.90;2.13;;;;;;;-2.16;65.47;100693.25;5033023;28;20095;-72
2021/04/27 03:40:42;;;;;;;6.43;2.17;;;;;;;-2.23;64.97;100702.41;5032663;28;20489;-72
2021/04/27 03:43:10;;;;;;;5.50;2.30;;;;;;;-2.30;66.86;100702.94;5031273;28;20108;-72
2021/04/27 03:45:42;;;;;;;6.83;2.60;;;;;;;-2.32;66.69;100705.44;5028273;28;20037;-72
2021/04/27 03:48:17;;;;;;;7.10;3.03;;;;;;;-2.26;66.15;100699.66;5029502;28;20489;-72
2021/04/27 03:50:54;;;;;;;8.23;2.97;;;;;;;-2.23;66.14;100698.13;5014230;28;20580;-72
2021/04/27 03:53:46;;;;;;;;;;;;;;;-2.26;66.67;100702.25;5033781;28;20124;-72
2021/04/27 03:56:22;;;;;;;4.80;2.20;;;;;;;-2.22;66.10;100702.47;5031536;28;19921;-72
2021/04/27 03:58:50;;;;;;;11.00;3.47;;;;;;;-2.19;66.42;100703.44;5014981;28;20026;-72
2021/04/27 04:01:15;;;;;;;9.37;3.17;;;;;;;-2.13;65.98;100703.72;5031246;28;20036;-72
2021/04/27 04:03:41;;;;;;;5.60;2.93;;;;;;;-2.09;65.58;100701.38;5032512;28;20029;-72
2021/04/27 04:06:09;;;;;;;6.07;2.70;;;;;;;-2.04;65.62;100705.06;5031119;28;20026;-72
2021/04/27 04:09:08;;;;;;;11.70;3.03;;;;;;;-1.98;65.10;100701.88;5020272;28;20037;-72
2021/04/27 04:11:47;;;;;;;6.33;2.70;;;;;;;-1.91;65.91;100705.63;5027814;28;20033;-72
2021/04/27 04:14:13;;;;;;;5.93;2.47;;;;;;;-1.87;65.50;100707.53;5030959;28;20060;-72
2021/04/27 04:17:01;;;;;;;5.90;2.43;;;;;;;-1.81;65.03;100708.72;5030987;28;20529;-73
2021/04/27 04:19:27;;;;;;;5.27;2.03;;;;;;;-1.76;64.55;100711.50;5027080;28;20026;-72
2021/04/27 04:21:59;;;;;;;6.07;2.45;;;;;;;-1.70;64.95;100703.13;5031879;28;20030;-72
2021/04/27 04:24:26;;;;;;;5.43;2.07;;;;;;;-1.65;64.25;100705.13;5030684;28;20545;-73
2021/04/27 04:26:51;;;;;;;6.77;2.30;;;;;;;-1.61;64.21;100707.03;5031933;28;20064;-72
2021/04/27 04:29:37;;;;;;;5.87;2.77;;;;;;;-1.59;64.75;100707.13;5028522;28;20068;-72
2021/04/27 04:32:31;;;;;;;7.50;3.60;;;;;;;-1.53;64.50;100707.38;5029990;28;20033;-72
2021/04/27 04:35:27;;;;;;;11.73;4.67;;;;;;;-1.44;64.37;100709.50;5028083;28;20120;-72
2021/04/27 04:38:14;;;;;;;6.93;3.27;;;;;;;-1.36;64.47;100709.03;5028412;28;20552;-72
2021/04/27 04:40:58;;;;;;;5.67;2.47;;;;;;;-1.26;63.96;100709.44;5028689;28;20044;-72
2021/04/27 04:43:42;;;;;;;7.53;3.03;;;;;;;-1.19;64.41;100708.88;5028509;28;20048;-72
2021/04/27 04:46:26;;;;;;;5.17;2.20;;;;;;;-1.17;64.77;100715.91;5028565;28;20123;-72
2021/04/27 04:49:21;;;;;;;5.93;2.40;;;;;;;-1.08;65.28;100719.72;5029757;28;20041;-72
2021/04/27 04:52:05;;;;;;;7.00;2.10;;;;;;;-0.97;64.43;100721.06;5028836;28;20096;-72
2021/04/27 04:54:47;;;;;;;5.97;2.30;;;;;;;-0.86;65.50;100717.25;5028204;28;20037;-72
2021/04/27 04:57:47;;;;;;;4.40;2.00;;;;;;;-0.79;64.55;100708.00;5024387;28;20038;-72
2021/04/27 05:00:17;;;;;;;11.90;4.93;;;;;;;-0.67;64.51;100713.72;5030309;28;20116;-72
2021/04/27 05:03:01;;;;;;;8.20;4.07;;;;;;;-0.53;64.62;100717.75;5029069;28;20047;-72
2021/04/27 05:05:45;;;;;;;12.30;3.57;;;;;;;-0.38;64.05;100719.22;5029344;28;20103;-72
2021/04/27 05:08:34;;;;;;;9.83;3.53;;;;;;;-0.26;63.82;100723.22;5025610;28;20048;-72
2021/04/27 05:11:23;;;;;;;5.50;2.53;;;;;;;-0.14;64.07;100715.00;5016346;28;20513;-72
2021/04/27 05:13:53;;;;;;;5.73;2.70;;;;;;;-0.03;63.73;100708.56;5031233;28;20612;-72
2021/04/27 05:16:19;;;;;;;6.97;3.37;;;;;;;0.10;63.06;100714.22;5031361;28;20157;-72
2021/04/27 05:18:44;;;;;;;6.90;3.13;;;;;;;0.18;63.53;100712.78;5030422;28;20515;-72
2021/04/27 05:21:10;;;;;;;8.67;3.80;;;;;;;0.30;63.17;100713.28;5028078;28;20452;-72
2021/04/27 05:23:35;;;;;;;9.33;3.23;;;;;;;0.44;63.18;100714.66;5027902;28;20041;-72
2021/04/27 05:26:01;;;;;;;8.77;4.80;;;;;;;0.55;63.26;100704.72;5029353;28;20055;-72
2021/04/27 05:28:27;;;;;;;8.97;4.63;;;;;;;0.65;62.95;100709.41;5028637;28;20637;-72
2021/04/27 05:30:52;;;;;;;10.30;4.03;;;;;;;0.74;62.35;100714.06;5030017;28;20128;-72
2021/04/27 05:33:18;;;;;;;8.70;3.97;;;;;;;0.84;62.21;100712.69;5029363;28;20124;-72
2021/04/27 05:35:43;;;;;;;8.43;3.47;;;;;;;0.93;62.46;100709.50;5030182;28;20045;-72
2021/04/27 05:38:10;;;;;;;10.83;4.17;;;;;;;1.00;62.70;100708.91;5031031;28;20037;-72
2021/04/27 05:40:36;;;;;;;9.60;4.63;;;;;;;1.12;61.98;100713.63;5031051;28;20026;-72
2021/04/27 05:43:02;;;;;;;7.60;3.77;;;;;;;1.23;61.85;100714.88;5029612;28;20390;-72
2021/04/27 05:45:27;;;;;;;8.03;4.00;;;;;;;1.32;62.15;100715.22;5030738;28;20087;-73
2021/04/27 05:47:53;;;;;;;12.27;4.70;;;;;;;1.41;62.57;100709.44;5030833;28;20400;-73
2021/04/27 05:50:18;;;;;;;7.97;3.87;;;;;;;1.55;62.48;100708.19;5030885;28;20068;-72
2021/04/27 05:52:43;;;;;;;9.90;3.97;;;;;;;1.69;62.64;100708.63;5030693;28;20034;-72
2021/04/27 05:55:09;;;;;;;11.43;3.73;;;;;;;1.85;62.33;100708.28;5030764;28;20038;-73
2021/04/27 05:57:34;;;;;;;10.95;4.22;;;;;;;1.98;62.30;100704.34;5030584;28;20026;-70
2021/04/27 06:00:00;;;;;;;11.07;4.07;;;;;;;2.11;61.86;100709.09;5030803;28;20468;-70
2021/04/27 06:02:25;;;;;;;9.35;5.28;;;;;;;2.25;61.89;100713.84;5030449;28;20041;-70
2021/04/27 06:04:52;;;;;;;10.63;5.70;;;;;;;2.36;61.35;100708.13;5016885;28;20124;-70
2021/04/27 06:07:17;;;;;;;11.40;4.72;;;;;;;2.49;61.08;100708.47;5034788;28;20120;-70
2021/04/27 06:09:42;;;;;;;14.10;5.25;;;;;;;2.61;61.28;100708.84;5034679;28;20187;-70
2021/04/27 06:12:08;;;;;;;11.10;5.68;;;;;;;2.74;60.75;100713.56;5034203;28;20041;-70
2021/04/27 06:14:33;;;;;;;11.63;5.57;;;;;;;2.85;60.56;100711.25;5034537;28;20493;-70
2021/04/27 06:16:59;;;;;;;8.88;4.15;;;;;;;2.98;59.70;100720.31;5034575;28;20106;-70
2021/04/27 06:19:24;;;;;;;12.30;5.53;;;;;;;3.07;59.90;100705.81;5034379;28;20052;-70
2021/04/27 06:21:49;;;;;;;11.27;5.13;;;;;;;3.16;59.51;100709.50;5033828;28;20040;-70
2021/04/27 06:24:15;;;;;;;9.88;4.13;;;;;;;3.26;59.06;100707.16;5034370;28;20030;-70
2021/04/27 06:26:41;;;;;;;13.35;5.35;;;;;;;3.38;59.11;100706.63;5034390;28;20037;-70
2021/04/27 06:29:06;;;;;;;9.75;5.32;;;;;;;3.49;58.71;100705.16;5029482;28;20025;-70
2021/04/27 06:31:32;;;;;;;10.63;4.68;;;;;;;3.59;58.69;100706.28;5034049;28;20512;-70
2021/04/27 06:33:57;;;;;;;13.75;4.80;;;;;;;3.70;58.14;100707.41;5034026;28;20480;-72
2021/04/27 06:36:22;;;;;;;14.20;5.20;;;;;;;3.80;57.96;100705.94;5034244;28;20044;-72
2021/04/27 06:38:48;;;;;;;10.45;5.55;;;;;;;3.92;58.53;100703.59;5034176;28;20045;-72
2021/04/27 06:41:14;;;;;;;8.32;4.60;;;;;;;4.06;58.44;100695.19;5033947;28;20060;-72
2021/04/27 06:43:39;;;;;;;9.70;4.88;;;;;;;4.15;58.20;100698.03;5033997;28;20037;-72
2021/04/27 06:46:05;;;;;;;9.75;4.80;;;;;;;4.30;57.90;100698.38;5034151;28;20519;-72
2021/04/27 06:48:33;;;;;;;10.65;4.45;;;;;;;4.47;57.32;100688.25;5034360;28;20033;-72
2021/04/27 06:50:59;;;;;;;8.38;4.20;;;;;;;4.64;56.59;100690.34;5033976;28;20044;-72
2021/04/27 06:53:24;;;;;;;9.25;4.50;;;;;;;4.75;56.64;100692.34;5033681;28;20033;-72
2021/04/27 06:55:50;;;;;;;10.18;4.35;;;;;;;4.87;55.39;100696.91;5033866;28;20124;-72
2021/04/27 06:58:16;;;;;;;11.95;4.78;;;;;;;5.01;55.12;100686.72;5033786;28;20069;-72
2021/04/27 07:00:42;;;;;;;12.65;5.00;;;;;;;5.16;54.29;100684.41;5033927;28;20499;-72
2021/04/27 07:03:07;;;;;;;13.80;7.15;;;;;;;5.30;53.94;100686.38;5033389;28;20069;-73
2021/04/27 07:05:33;;;;;;;11.35;6.38;;;;;;;5.40;53.43;100672.59;5034090;28;20099;-72
2021/04/27 07:07:58;;;;;;;9.05;4.93;;;;;;;5.54;53.03;100678.94;5033756;28;20029;-72
2021/04/27 07:10:24;;;;;;;10.88;4.75;;;;;;;5.64;51.87;100677.38;5031219;28;20376;-71
2021/04/27 07:12:50;;;;;;;11.48;5.07;;;;;;;5.75;51.86;100680.16;5032736;28;20030;-70
2021/04/27 07:15:16;;;;;;;9.00;3.92;;;;;;;5.86;51.42;100673.34;5032464;28;20654;-70
2021/04/27 07:17:41;;;;;;;9.93;4.90;;;;;;;6.01;51.62;100668.34;5033156;28;20025;-70
2021/04/27 07:20:08;;;;;;;9.38;4.65;;;;;;;6.10;50.00;100673.75;5033160;28;20413;-70
2021/04/27 07:22:33;;;;;;;9.63;4.00;;;;;;;6.25;50.43;100677.44;5033018;28;20033;-70
2021/04/27 07:24:58;;;;;;;10.27;4.35;;;;;;;6.36;49.62;100665.34;5033232;28;20037;-70
2021/04/27 07:27:24;;;;;;;8.07;3.80;;;;;;;6.49;48.68;100664.63;5033248;28;20113;-71
2021/04/27 07:29:49;;;;;;;5.10;2.90;;;;;;;6.58;47.49;100667.38;5033239;28;20042;-70
2021/04/27 07:32:15;;;;;;;7.05;2.92;;;;;;;6.71;46.83;100659.66;5032665;28;20037;-70
2021/04/27 07:34:41;;;;;;;9.90;4.10;;;;;;;6.85;46.32;100658.06;5031823;28;20068;-70
2021/04/27 07:37:07;;;;;;;8.23;3.17;;;;;;;6.96;45.47;100659.06;5029439;28;20029;-71
2021/04/27 07:39:33;;;;;;;7.25;3.65;;;;;;;7.15;45.38;100659.25;5033034;28;20068;-70
2021/04/27 07:41:58;;;;;;;6.10;3.28;;;;;;;7.27;45.00;100654.13;5032824;28;20038;-71
2021/04/27 07:44:24;;;;;;;5.35;2.72;;;;;;;7.41;43.85;100649.88;5032850;28;20112;-71
2021/04/27 07:46:49;;;;;;;9.43;3.00;;;;;;;7.49;42.59;100651.69;5032926;28;20044;-70
2021/04/27 07:49:15;;;;;;;7.38;3.05;;;;;;;7.56;43.40;100651.75;5032994;28;20041;-70
2021/04/27 07:51:40;;;;;;;6.97;2.72;;;;;;;7.65;42.25;100649.19;5032874;28;20037;-70
2021/04/27 07:54:05;;;;;;;6.35;2.65;;;;;;;7.77;42.34;100644.91;5032867;28;20091;-70
2021/04/27 07:56:31;;;;;;;8.63;2.80;;;;;;;7.90;42.22;100652.88;5032755;28;20033;-70
2021/04/27 07:59:03;;;;;;;8.02;4.05;;;;;;;8.05;40.94;100641.56;5032540;28;20041;-71
2021/04/27 08:01:29;;;;;;;7.35;3.35;;;;;;;8.16;41.12;100641.63;5032453;28;20044;-70
2021/04/27 08:03:55;;;;;;;5.68;2.78;;;;;;;8.23;38.67;100647.81;5032497;28;20045;-70
2021/04/27 08:06:20;;;;;;;9.40;3.00;;;;;;;8.30;39.43;100639.06;5032528;28;20030;-70
2021/04/27 08:08:46;;;;;;;6.30;3.20;;;;;;;8.35;39.36;100640.84;5032492;28;20056;-70
2021/04/27 08:11:11;;;;;;;8.52;4.10;;;;;;;8.48;39.05;100630.41;5032307;28;20045;-70
2021/04/27 08:13:36;;;;;;;6.63;3.53;;;;;;;8.60;38.59;100637.50;5032129;28;20041;-70
2021/04/27 08:16:02;;;;;;;10.02;3.45;;;;;;;8.66;36.28;100638.38;5032440;28;20041;-70
2021/04/27 08:18:28;;;;;;;6.25;2.63;;;;;;;8.77;37.42;100631.38;5032326;28;20037;-70
2021/04/27 08:20:53;;;;;;;6.72;2.38;;;;;;;8.91;37.68;100633.22;5032289;28;20041;-71
2021/04/27 08:23:19;;;;;;;5.90;2.47;;;;;;;8.98;37.57;100629.69;5032196;28;20104;-71
2021/04/27 08:25:44;;;;;;;6.05;2.30;;;;;;;9.08;38.32;100628.84;5032048;28;20060;-70
2021/04/27 08:28:09;;;;;;;7.07;2.67;;;;;;;9.14;36.41;100626.22;5030811;28;20059;-70
2021/04/27 08:30:35;;;;;;;6.57;2.58;;;;;;;9.24;36.36;100626.22;5032005;28;20064;-70
2021/04/27 08:33:00;;;;;;;5.85;2.17;;;;;;;9.35;35.11;100621.81;5031399;28;20037;-70
2021/04/27 08:35:26;;;;;;;5.13;2.03;;;;;;;9.34;33.81;100625.34;5031928;28;20041;-71
2021/04/27 08:37:52;;;;;;;3.50;1.63;;;;;;;9.42;34.41;100626.22;5031825;28;20034;-70
2021/04/27 08:40:18;;;;;;;4.55;1.90;;;;;;;9.47;33.98;100624.47;5031954;28;20049;-70
2021/04/27 08:42:49;;;;;;;4.28;2.13;;;;;;;9.57;34.50;100622.72;5031628;28;20064;-70
2021/04/27 08:45:14;;;;;;;5.00;2.17;;;;;;;9.68;34.55;100617.44;5030549;28;20042;-71
2021/04/27 08:47:40;;;;;;;4.20;1.45;;;;;;;9.67;32.32;100616.56;5031872;28;20041;-71
2021/04/27 08:50:08;;;;;;;3.38;1.60;;;;;;;9.64;32.80;100613.91;5031724;28;20228;-71
2021/04/27 08:52:34;;;;;;;4.47;1.58;;;;;;;9.77;32.49;100605.13;5031351;28;20044;-71
2021/04/27 08:54:59;;;;;;;5.63;1.98;;;;;;;9.90;32.66;100610.38;5031503;28;20038;-71
2021/04/27 08:57:25;;;;;;;5.10;1.60;;;;;;;9.90;30.77;100605.97;5031595;28;20040;-71
2021/04/27 08:59:51;;;;;;;3.45;1.35;;;;;;;9.97;31.72;100607.72;5031538;28;20045;-70
2021/04/27 09:02:25;;;;;;;3.58;1.48;;;;;;;10.04;30.59;100604.19;5031219;28;20041;-71
2021/04/27 09:04:50;;;;;;;2.83;1.23;;;;;;;10.13;32.41;100591.84;5028590;28;20057;-70
2021/04/27 09:07:18;;;;;;;3.65;2.20;;;;;;;10.18;31.40;100596.22;5031409;28;20448;-71
2021/04/27 09:09:55;;;;;;;3.65;1.65;;;;;;;10.25;30.92;100590.03;5031433;28;20120;-70
2021/04/27 09:12:23;;;;;;;3.80;1.77;;;;;;;10.33;31.21;100594.47;5031109;28;20037;-71
2021/04/27 09:14:50;;;;;;;6.97;3.00;;;;;;;10.43;31.60;100586.50;5027977;28;20048;-70
2021/04/27 09:17:15;;;;;;;8.80;4.22;;;;;;;10.58;32.83;100582.00;5031390;28;20116;-70
2021/04/27 09:19:51;;;;;;;9.02;4.05;;;;;;;10.68;32.33;100581.06;5031234;28;20120;-71
2021/04/27 09:22:19;;;;;;;8.27;3.63;;;;;;;10.89;33.18;100582.69;5030908;28;20056;-70
2021/04/27 09:24:53;;;;;;;13.15;3.83;;;;;;;11.02;32.28;100578.22;5030904;28;20091;-71
2021/04/27 09:27:32;;;;;;;6.03;2.20;;;;;;;11.07;31.27;100577.28;5031247;28;20049;-70
2021/04/27 09:30:09;;;;;;;3.95;1.42;;;;;;;11.10;30.47;100576.41;5028280;28;20072;-71
2021/04/27 09:32:38;;;;;;;3.65;1.65;;;;;;;10.92;28.73;100569.47;5030286;28;20560;-71
2021/04/27 09:35:22;;;;;;;9.63;1.90;;;;;;;11.00;30.96;100572.06;5029967;28;20037;-71
2021/04/27 09:38:06;;;;;;;7.55;2.95;;;;;;;11.09;30.25;100562.31;5028371;28;20033;-69
2021/04/27 09:40:31;;;;;;;5.22;1.73;;;;;;;11.11;29.90;100559.69;5028772;28;20029;-70
2021/04/27 09:43:05;;;;;;;3.83;2.30;;;;;;;11.25;29.85;100560.44;5030486;28;20037;-70
2021/04/27 09:45:45;;;;;;;3.25;1.40;;;;;;;11.37;28.71;100549.75;5028317;28;20086;-70
2021/04/27 09:48:12;;;;;;;5.55;2.47;;;;;;;11.35;28.67;100559.47;5027807;28;20569;-70
2021/04/27 09:50:38;;;;;;;5.55;3.03;;;;;;;11.33;29.09;100555.06;5029734;28;20037;-70
2021/04/27 09:53:04;;;;;;;6.45;3.22;;;;;;;11.35;29.50;100553.31;5030644;28;20036;-72
2021/04/27 09:55:31;;;;;;;4.80;1.55;;;;;;;11.23;28.89;100549.00;5030763;28;20037;-72
2021/04/27 09:57:57;;;;;;;5.30;1.60;;;;;;;11.28;29.72;100544.53;5030865;28;20370;-74
2021/04/27 10:00:39;;;;;;;4.30;2.00;;;;;;;11.50;28.52;100539.94;5030347;28;20042;-72
2021/04/27 10:03:12;;;;;;;3.20;1.40;;;;;;;11.61;28.23;100534.56;5029404;28;20073;-72
2021/04/27 10:05:45;;;;;;;2.50;1.05;;;;;;;11.71;27.79;100536.22;5030851;28;20091;-72
2021/04/27 10:08:12;;;;;;;2.85;1.25;;;;;;;11.83;28.92;100540.47;5030138;28;20116;-71
2021/04/27 10:10:38;;;;;;;4.57;1.58;;;;;;;11.93;28.26;100526.28;5030618;28;20044;-71
2021/04/27 10:13:08;;;;;;;4.15;2.00;;;;;;;11.98;27.35;100526.25;5030322;28;20029;-72
2021/04/27 10:15:34;;;;;;;2.95;1.55;;;;;;;12.12;27.66;100521.66;5027526;28;20087;-71
2021/04/27 10:18:02;;;;;;;3.70;1.52;;;;;;;12.29;28.25;100516.16;5030696;28;20417;-71
2021/04/27 10:20:28;;;;;;;5.80;1.45;;;;;;;12.26;27.16;100506.47;5029904;28;20401;-71
2021/04/27 10:22:53;;;;;;;3.53;1.60;;;;;;;12.33;27.05;100509.91;5030234;28;20049;-71
2021/04/27 10:25:22;;;;;;;5.05;1.60;;;;;;;12.44;26.73;100507.09;5030655;28;20099;-70
2021/04/27 10:27:55;;;;;;;3.08;1.30;;;;;;;12.49;26.07;100497.31;5030407;28;20504;-71
2021/04/27 10:30:22;;;;;;;4.53;2.05;;;;;;;12.56;26.47;100490.19;5030471;28;20037;-71
2021/04/27 10:33:08;;;;;;;3.97;1.90;;;;;;;12.64;26.75;100494.44;5030002;28;20485;-71
2021/04/27 10:35:36;;;;;;;5.30;1.10;;;;;;;12.81;26.86;100491.56;5029236;28;20052;-71
2021/04/27 10:38:07;;;;;;;3.00;1.67;;;;;;;12.91;26.13;100492.25;5030483;28;20077;-70
2021/04/27 10:40:51;;;;;;;3.60;1.70;;;;;;;12.85;26.32;100487.06;5030447;28;20037;-71
2021/04/27 10:43:26;;;;;;;3.03;1.20;;;;;;;12.92;25.55;100483.44;5033817;28;20124;-70
2021/04/27 10:46:17;;;;;;;3.72;1.27;;;;;;;13.03;24.28;100472.66;5030466;28;20045;-70
2021/04/27 10:48:44;;;;;;;5.80;1.40;;;;;;;12.87;24.93;100470.25;5020606;28;20037;-71
2021/04/27 10:51:34;;;;;;;4.05;1.50;;;;;;;12.97;25.37;100470.09;5032808;28;20091;-71
2021/04/27 10:54:04;;;;;;;2.65;1.20;;;;;;;13.16;26.03;100456.50;5031558;28;20408;-71
2021/04/27 10:56:51;;;;;;;4.28;1.33;;;;;;;13.27;24.56;100456.34;5033812;28;20052;-71
2021/04/27 10:59:25;;;;;;;3.55;1.80;;;;;;;13.23;24.73;100437.84;5033843;28;20448;-70
2021/04/27 11:02:12;;;;;;;3.45;1.55;;;;;;;13.28;24.96;100436.00;5033373;28;20128;-70
2021/04/27 11:04:45;;;;;;;2.80;1.25;;;;;;;13.25;24.06;100438.69;5032311;28;20124;-71
2021/04/27 11:07:16;;;;;;;3.67;1.30;;;;;;;13.29;24.48;100441.28;5030834;28;20030;-70
2021/04/27 11:09:59;;;;;;;2.53;1.00;;;;;;;13.43;23.25;100438.38;5033950;28;20033;-70
2021/04/27 11:12:42;;;;;;;3.53;1.35;;;;;;;13.45;24.29;100436.56;5033308;28;20091;-70
2021/04/27 11:15:09;;;;;;;3.88;1.27;;;;;;;13.50;23.98;100424.09;5032135;28;20057;-70
2021/04/27 11:17:40;;;;;;;2.88;1.20;;;;;;;13.57;23.89;100428.38;5033444;28;20038;-71
2021/04/27 11:20:10;;;;;;;3.05;1.15;;;;;;;13.66;24.20;100423.78;5033611;28;20073;-70
2021/04/27 11:22:50;;;;;;;4.90;2.03;;;;;;;13.76;23.32;100418.25;5033112;28;20029;-70
2021/04/27 11:25:32;;;;;;;4.15;1.55;;;;;;;13.86;24.09;100426.91;5033277;28;20405;-70
2021/04/27 11:27:58;;;;;;;5.35;1.90;;;;;;;14.00;24.14;100414.19;5033339;28;20029;-71
2021/04/27 11:30:32;;;;;;;3.63;1.40;;;;;;;14.11;23.11;100403.34;5033021;28;20128;-70
2021/04/27 11:33:03;;;;;;;3.03;1.50;;;;;;;14.34;23.80;100412.56;5032794;28;20037;-70
2021/04/27 11:35:39;;;;;;;2.67;1.60;;;;;;;14.74;23.36;100416.94;5030170;28;20041;-70
2021/04/27 11:38:06;;;;;;;3.13;1.70;;;;;;;14.90;22.57;100403.22;5033161;28;20038;-70
2021/04/27 11:40:37;;;;;;;3.83;1.42;;;;;;;15.27;22.80;100398.69;5032687;28;20444;-70